sensor_id;sensor_type;location;lat;lon;timestamp;temperature;humidity
14755;DHT22;7469;50.906;6.952;2022-10-30T00:01:07;17.30;99.90
14755;DHT22;7469;50.906;6.952;2022-10-30T00:03:35;17.30;99.90
14755;DHT22;7469;50.906;6.952;2022-10-30T00:06:04;17.30;99.90
14755;DHT22;7469;50.906;6.952;2022-10-30T00:08:32;17.30;99.90
14755;DHT22;7469;50.906;6.952;2022-10-30T00:11:05;17.30;99.90
14755;DHT22;7469;50.906;6.952;2022-10-30T00:13:35;17.20;99.90
14755;DHT22;7469;50.906;6.952;2022-10-30T00:16:05;17.20;99.90
14755;DHT22;7469;50.906;6.952;2022-10-30T00:18:34;17.20;99.90
14755;DHT22;7469;50.906;6.952;2022-10-30T00:21:07;17.20;99.90
14755;DHT22;7469;50.906;6.952;2022-10-30T00:23:35;17.20;99.90
14755;DHT22;7469;50.906;6.952;2022-10-30T00:26:05;17.20;99.90
14755;DHT22;7469;50.906;6.952;2022-10-30T00:28:34;17.20;99.90
14755;DHT22;7469;50.906;6.952;2022-10-30T00:31:03;17.20;99.90
14755;DHT22;7469;50.906;6.952;2022-10-30T00:33:32;17.10;99.90
14755;DHT22;7469;50.906;6.952;2022-10-30T00:36:00;17.10;99.90
14755;DHT22;7469;50.906;6.952;2022-10-30T00:38:27;17.10;99.90
14755;DHT22;7469;50.906;6.952;2022-10-30T00:40:55;17.10;99.90
14755;DHT22;7469;50.906;6.952;2022-10-30T00:43:29;17.10;99.90
14755;DHT22;7469;50.906;6.952;2022-10-30T00:46:01;17.10;99.90
14755;DHT22;7469;50.906;6.952;2022-10-30T00:48:33;17.10;99.90
14755;DHT22;7469;50.906;6.952;2022-10-30T00:51:02;17.10;99.90
14755;DHT22;7469;50.906;6.952;2022-10-30T00:53:32;17.00;99.90
14755;DHT22;7469;50.906;6.952;2022-10-30T00:56:02;17.00;99.90
14755;DHT22;7469;50.906;6.952;2022-10-30T00:58:34;17.00;99.90
14755;DHT22;7469;50.906;6.952;2022-10-30T01:01:08;17.00;99.90
14755;DHT22;7469;50.906;6.952;2022-10-30T01:03:38;17.00;99.90
14755;DHT22;7469;50.906;6.952;2022-10-30T01:06:09;16.90;99.90
14755;DHT22;7469;50.906;6.952;2022-10-30T01:08:37;16.90;99.90
14755;DHT22;7469;50.906;6.952;2022-10-30T01:11:06;16.90;99.90
14755;DHT22;7469;50.906;6.952;2022-10-30T01:13:35;16.80;99.90
14755;DHT22;7469;50.906;6.952;2022-10-30T01:19:14;16.80;99.90
14755;DHT22;7469;50.906;6.952;2022-10-30T01:21:55;16.80;99.90
14755;DHT22;7469;50.906;6.952;2022-10-30T01:24:38;16.80;99.90
14755;DHT22;7469;50.906;6.952;2022-10-30T01:27:20;16.70;99.90
14755;DHT22;7469;50.906;6.952;2022-10-30T01:29:59;16.70;99.90
14755;DHT22;7469;50.906;6.952;2022-10-30T01:32:40;16.70;99.90
14755;DHT22;7469;50.906;6.952;2022-10-30T01:35:17;16.60;99.90
14755;DHT22;7469;50.906;6.952;2022-10-30T01:37:51;16.60;99.90
14755;DHT22;7469;50.906;6.952;2022-10-30T01:40:22;16.60;99.90
14755;DHT22;7469;50.906;6.952;2022-10-30T01:42:51;16.50;99.90
14755;DHT22;7469;50.906;6.952;2022-10-30T01:45:25;16.50;99.90
14755;DHT22;7469;50.906;6.952;2022-10-30T01:48:12;16.50;99.90
14755;DHT22;7469;50.906;6.952;2022-10-30T01:50:47;16.40;99.90
14755;DHT22;7469;50.906;6.952;2022-10-30T01:53:35;16.40;99.90
14755;DHT22;7469;50.906;6.952;2022-10-30T01:56:17;16.40;99.90
14755;DHT22;7469;50.906;6.952;2022-10-30T01:58:50;16.30;99.90
14755;DHT22;7469;50.906;6.952;2022-10-30T02:01:23;16.30;99.90
14755;DHT22;7469;50.906;6.952;2022-10-30T02:03:53;16.20;99.90
14755;DHT22;7469;50.906;6.952;2022-10-30T02:06:21;16.20;99.90
14755;DHT22;7469;50.906;6.952;2022-10-30T02:08:49;16.20;99.90
14755;DHT22;7469;50.906;6.952;2022-10-30T02:11:17;16.10;99.90
14755;DHT22;7469;50.906;6.952;2022-10-30T02:13:45;16.10;99.90
14755;DHT22;7469;50.906;6.952;2022-10-30T02:16:13;16.10;99.90
14755;DHT22;7469;50.906;6.952;2022-10-30T02:18:41;16.00;99.90
14755;DHT22;7469;50.906;6.952;2022-10-30T02:21:15;16.00;99.90
14755;DHT22;7469;50.906;6.952;2022-10-30T02:23:43;15.90;99.90
14755;DHT22;7469;50.906;6.952;2022-10-30T02:26:11;15.90;99.90
14755;DHT22;7469;50.906;6.952;2022-10-30T02:28:39;15.80;99.90
14755;DHT22;7469;50.906;6.952;2022-10-30T02:31:07;15.80;99.90
14755;DHT22;7469;50.906;6.952;2022-10-30T02:33:35;15.70;99.90
14755;DHT22;7469;50.906;6.952;2022-10-30T02:36:04;15.70;99.90
14755;DHT22;7469;50.906;6.952;2022-10-30T02:38:33;15.60;99.90
14755;DHT22;7469;50.906;6.952;2022-10-30T02:41:01;15.60;99.90
14755;DHT22;7469;50.906;6.952;2022-10-30T02:43:29;15.50;99.90
14755;DHT22;7469;50.906;6.952;2022-10-30T02:45:57;15.50;99.90
14755;DHT22;7469;50.906;6.952;2022-10-30T02:48:25;15.50;99.90
14755;DHT22;7469;50.906;6.952;2022-10-30T02:50:58;15.50;99.90
14755;DHT22;7469;50.906;6.952;2022-10-30T02:53:26;15.40;99.90
14755;DHT22;7469;50.906;6.952;2022-10-30T02:56:01;15.40;99.90
14755;DHT22;7469;50.906;6.952;2022-10-30T02:58:30;15.40;99.90
14755;DHT22;7469;50.906;6.952;2022-10-30T03:01:04;15.30;99.90
14755;DHT22;7469;50.906;6.952;2022-10-30T03:03:32;15.30;99.90
14755;DHT22;7469;50.906;6.952;2022-10-30T03:06:00;15.30;99.90
14755;DHT22;7469;50.906;6.952;2022-10-30T03:08:28;15.20;99.90
14755;DHT22;7469;50.906;6.952;2022-10-30T03:11:02;15.20;99.90
14755;DHT22;7469;50.906;6.952;2022-10-30T03:13:32;15.20;99.90
14755;DHT22;7469;50.906;6.952;2022-10-30T03:16:01;15.10;99.90
14755;DHT22;7469;50.906;6.952;2022-10-30T03:18:29;15.10;99.90
14755;DHT22;7469;50.906;6.952;2022-10-30T03:21:01;15.00;99.90
14755;DHT22;7469;50.906;6.952;2022-10-30T03:23:29;15.00;99.90
14755;DHT22;7469;50.906;6.952;2022-10-30T03:25:58;14.90;99.90
14755;DHT22;7469;50.906;6.952;2022-10-30T03:28:29;14.90;99.90
14755;DHT22;7469;50.906;6.952;2022-10-30T03:30:58;14.90;99.90
14755;DHT22;7469;50.906;6.952;2022-10-30T03:33:26;14.90;99.90
14755;DHT22;7469;50.906;6.952;2022-10-30T03:35:55;14.80;99.90
14755;DHT22;7469;50.906;6.952;2022-10-30T03:38:22;14.80;99.90
14755;DHT22;7469;50.906;6.952;2022-10-30T03:40:52;14.80;99.90
14755;DHT22;7469;50.906;6.952;2022-10-30T03:43:20;14.80;99.90
14755;DHT22;7469;50.906;6.952;2022-10-30T03:45:53;14.80;99.90
14755;DHT22;7469;50.906;6.952;2022-10-30T03:48:23;14.70;99.90
14755;DHT22;7469;50.906;6.952;2022-10-30T03:50:51;14.70;99.90
14755;DHT22;7469;50.906;6.952;2022-10-30T03:53:19;14.70;99.90
14755;DHT22;7469;50.906;6.952;2022-10-30T03:55:49;14.70;99.90
14755;DHT22;7469;50.906;6.952;2022-10-30T03:58:17;14.70;99.90
14755;DHT22;7469;50.906;6.952;2022-10-30T04:00:44;14.70;99.90
14755;DHT22;7469;50.906;6.952;2022-10-30T04:03:16;14.60;99.90
14755;DHT22;7469;50.906;6.952;2022-10-30T04:05:44;14.60;99.90
14755;DHT22;7469;50.906;6.952;2022-10-30T04:08:13;14.60;99.90
14755;DHT22;7469;50.906;6.952;2022-10-30T04:10:41;14.60;99.90
14755;DHT22;7469;50.906;6.952;2022-10-30T04:13:11;14.60;99.90
14755;DHT22;7469;50.906;6.952;2022-10-30T04:15:39;14.50;99.90
14755;DHT22;7469;50.906;6.952;2022-10-30T04:18:09;14.50;99.90
14755;DHT22;7469;50.906;6.952;2022-10-30T04:20:38;14.50;99.90
14755;DHT22;7469;50.906;6.952;2022-10-30T04:23:09;14.40;99.90
14755;DHT22;7469;50.906;6.952;2022-10-30T04:25:39;14.40;99.90
14755;DHT22;7469;50.906;6.952;2022-10-30T04:28:06;14.40;99.90
14755;DHT22;7469;50.906;6.952;2022-10-30T04:30:35;14.30;99.90
14755;DHT22;7469;50.906;6.952;2022-10-30T04:33:05;14.20;99.90
14755;DHT22;7469;50.906;6.952;2022-10-30T04:35:35;14.20;99.90
14755;DHT22;7469;50.906;6.952;2022-10-30T04:38:06;14.20;99.90
14755;DHT22;7469;50.906;6.952;2022-10-30T04:40:37;14.10;99.90
14755;DHT22;7469;50.906;6.952;2022-10-30T04:43:06;14.10;99.90
14755;DHT22;7469;50.906;6.952;2022-10-30T04:45:34;14.00;99.90
14755;DHT22;7469;50.906;6.952;2022-10-30T04:48:04;14.00;99.90
14755;DHT22;7469;50.906;6.952;2022-10-30T04:50:33;14.00;99.90
14755;DHT22;7469;50.906;6.952;2022-10-30T04:53:06;13.90;99.90
14755;DHT22;7469;50.906;6.952;2022-10-30T04:55:35;13.90;99.90
14755;DHT22;7469;50.906;6.952;2022-10-30T04:58:04;13.90;99.90
14755;DHT22;7469;50.906;6.952;2022-10-30T05:00:33;13.80;99.90
14755;DHT22;7469;50.906;6.952;2022-10-30T05:03:01;13.80;99.90
14755;DHT22;7469;50.906;6.952;2022-10-30T05:05:30;13.80;99.90
14755;DHT22;7469;50.906;6.952;2022-10-30T05:07:58;13.80;99.90
14755;DHT22;7469;50.906;6.952;2022-10-30T05:10:28;13.80;99.90
14755;DHT22;7469;50.906;6.952;2022-10-30T05:12:56;13.80;99.90
14755;DHT22;7469;50.906;6.952;2022-10-30T05:15:25;13.80;99.90
14755;DHT22;7469;50.906;6.952;2022-10-30T05:17:53;13.80;99.90
14755;DHT22;7469;50.906;6.952;2022-10-30T05:20:21;13.70;99.90
14755;DHT22;7469;50.906;6.952;2022-10-30T05:22:53;13.70;99.90
14755;DHT22;7469;50.906;6.952;2022-10-30T05:25:22;13.70;99.90
14755;DHT22;7469;50.906;6.952;2022-10-30T05:27:56;13.70;99.90
14755;DHT22;7469;50.906;6.952;2022-10-30T05:30:25;13.70;99.90
14755;DHT22;7469;50.906;6.952;2022-10-30T05:32:58;13.70;99.90
14755;DHT22;7469;50.906;6.952;2022-10-30T05:35:27;13.70;99.90
14755;DHT22;7469;50.906;6.952;2022-10-30T05:37:55;13.70;99.90
14755;DHT22;7469;50.906;6.952;2022-10-30T05:40:23;13.70;99.90
14755;DHT22;7469;50.906;6.952;2022-10-30T05:42:52;13.70;99.90
14755;DHT22;7469;50.906;6.952;2022-10-30T05:45:20;13.70;99.90
14755;DHT22;7469;50.906;6.952;2022-10-30T05:47:54;13.70;99.90
14755;DHT22;7469;50.906;6.952;2022-10-30T05:50:22;13.70;99.90
14755;DHT22;7469;50.906;6.952;2022-10-30T05:52:54;13.70;99.90
14755;DHT22;7469;50.906;6.952;2022-10-30T05:55:22;13.80;99.90
14755;DHT22;7469;50.906;6.952;2022-10-30T05:57:55;13.80;99.90
14755;DHT22;7469;50.906;6.952;2022-10-30T06:00:25;13.80;99.90
14755;DHT22;7469;50.906;6.952;2022-10-30T06:02:58;13.80;99.90
14755;DHT22;7469;50.906;6.952;2022-10-30T06:05:28;13.80;99.90
14755;DHT22;7469;50.906;6.952;2022-10-30T06:07:57;13.80;99.90
14755;DHT22;7469;50.906;6.952;2022-10-30T06:10:25;13.80;99.90
14755;DHT22;7469;50.906;6.952;2022-10-30T06:12:55;13.90;99.90
14755;DHT22;7469;50.906;6.952;2022-10-30T06:15:28;13.90;99.90
14755;DHT22;7469;50.906;6.952;2022-10-30T06:17:57;13.90;99.90
14755;DHT22;7469;50.906;6.952;2022-10-30T06:20:27;13.80;99.90
14755;DHT22;7469;50.906;6.952;2022-10-30T06:22:56;13.80;99.90
14755;DHT22;7469;50.906;6.952;2022-10-30T06:25:25;13.80;99.90
14755;DHT22;7469;50.906;6.952;2022-10-30T06:27:54;13.80;99.90
14755;DHT22;7469;50.906;6.952;2022-10-30T06:30:23;13.80;99.90
14755;DHT22;7469;50.906;6.952;2022-10-30T06:32:55;13.80;99.90
14755;DHT22;7469;50.906;6.952;2022-10-30T06:35:24;13.80;99.90
14755;DHT22;7469;50.906;6.952;2022-10-30T06:37:53;13.80;99.90
14755;DHT22;7469;50.906;6.952;2022-10-30T06:40:22;13.80;99.90
14755;DHT22;7469;50.906;6.952;2022-10-30T06:42:51;13.80;99.90
14755;DHT22;7469;50.906;6.952;2022-10-30T06:45:21;13.80;99.90
14755;DHT22;7469;50.906;6.952;2022-10-30T06:47:49;13.80;99.90
14755;DHT22;7469;50.906;6.952;2022-10-30T06:50:19;13.80;99.90
14755;DHT22;7469;50.906;6.952;2022-10-30T06:52:47;13.80;99.90
14755;DHT22;7469;50.906;6.952;2022-10-30T06:55:16;13.80;99.90
14755;DHT22;7469;50.906;6.952;2022-10-30T06:57:44;13.80;99.90
14755;DHT22;7469;50.906;6.952;2022-10-30T07:00:12;13.80;99.90
14755;DHT22;7469;50.906;6.952;2022-10-30T07:02:42;13.90;99.90
14755;DHT22;7469;50.906;6.952;2022-10-30T07:05:10;13.90;99.90
14755;DHT22;7469;50.906;6.952;2022-10-30T07:07:38;13.90;99.90
14755;DHT22;7469;50.906;6.952;2022-10-30T07:10:06;13.90;99.90
14755;DHT22;7469;50.906;6.952;2022-10-30T07:12:34;14.00;99.90
14755;DHT22;7469;50.906;6.952;2022-10-30T07:15:02;14.00;99.90
14755;DHT22;7469;50.906;6.952;2022-10-30T07:17:30;14.10;99.90
14755;DHT22;7469;50.906;6.952;2022-10-30T07:20:00;14.10;99.90
14755;DHT22;7469;50.906;6.952;2022-10-30T07:22:28;14.20;99.90
14755;DHT22;7469;50.906;6.952;2022-10-30T07:24:56;14.30;99.90
14755;DHT22;7469;50.906;6.952;2022-10-30T07:27:24;14.30;99.90
14755;DHT22;7469;50.906;6.952;2022-10-30T07:29:51;14.40;99.90
14755;DHT22;7469;50.906;6.952;2022-10-30T07:32:19;14.40;99.90
14755;DHT22;7469;50.906;6.952;2022-10-30T07:34:47;14.50;99.90
14755;DHT22;7469;50.906;6.952;2022-10-30T07:37:16;14.60;99.90
14755;DHT22;7469;50.906;6.952;2022-10-30T07:39:44;14.70;99.90
14755;DHT22;7469;50.906;6.952;2022-10-30T07:42:12;14.80;99.90
14755;DHT22;7469;50.906;6.952;2022-10-30T07:44:40;14.80;99.90
14755;DHT22;7469;50.906;6.952;2022-10-30T07:47:08;15.00;99.90
14755;DHT22;7469;50.906;6.952;2022-10-30T07:49:36;15.10;99.90
14755;DHT22;7469;50.906;6.952;2022-10-30T07:52:04;15.10;99.90
14755;DHT22;7469;50.906;6.952;2022-10-30T07:54:34;15.30;99.90
14755;DHT22;7469;50.906;6.952;2022-10-30T07:57:02;15.40;99.90
14755;DHT22;7469;50.906;6.952;2022-10-30T07:59:29;15.50;99.90
14755;DHT22;7469;50.906;6.952;2022-10-30T08:01:57;15.60;99.90
14755;DHT22;7469;50.906;6.952;2022-10-30T08:04:26;15.70;99.90
14755;DHT22;7469;50.906;6.952;2022-10-30T08:06:54;15.80;99.90
14755;DHT22;7469;50.906;6.952;2022-10-30T08:09:22;16.00;99.90
14755;DHT22;7469;50.906;6.952;2022-10-30T08:11:53;16.10;99.90
14755;DHT22;7469;50.906;6.952;2022-10-30T08:14:21;16.20;99.90
14755;DHT22;7469;50.906;6.952;2022-10-30T08:16:49;16.30;99.90
14755;DHT22;7469;50.906;6.952;2022-10-30T08:19:17;16.50;99.90
14755;DHT22;7469;50.906;6.952;2022-10-30T08:21:45;16.70;99.90
14755;DHT22;7469;50.906;6.952;2022-10-30T08:24:13;16.90;99.90
14755;DHT22;7469;50.906;6.952;2022-10-30T08:26:41;17.00;99.90
14755;DHT22;7469;50.906;6.952;2022-10-30T08:29:10;17.20;99.90
14755;DHT22;7469;50.906;6.952;2022-10-30T08:31:38;17.30;99.90
14755;DHT22;7469;50.906;6.952;2022-10-30T08:34:06;17.50;99.90
14755;DHT22;7469;50.906;6.952;2022-10-30T08:36:35;17.60;99.90
14755;DHT22;7469;50.906;6.952;2022-10-30T08:39:03;17.80;99.90
14755;DHT22;7469;50.906;6.952;2022-10-30T08:41:31;17.90;99.90
14755;DHT22;7469;50.906;6.952;2022-10-30T08:43:59;18.10;99.90
14755;DHT22;7469;50.906;6.952;2022-10-30T08:46:28;18.30;99.90
14755;DHT22;7469;50.906;6.952;2022-10-30T08:48:56;18.40;99.90
14755;DHT22;7469;50.906;6.952;2022-10-30T08:51:23;18.60;99.90
14755;DHT22;7469;50.906;6.952;2022-10-30T08:53:51;18.80;99.90
14755;DHT22;7469;50.906;6.952;2022-10-30T08:56:19;19.10;99.90
14755;DHT22;7469;50.906;6.952;2022-10-30T08:58:49;19.50;99.90
14755;DHT22;7469;50.906;6.952;2022-10-30T09:01:19;20.00;99.90
14755;DHT22;7469;50.906;6.952;2022-10-30T09:03:48;20.40;99.90
14755;DHT22;7469;50.906;6.952;2022-10-30T09:06:16;20.90;99.90
14755;DHT22;7469;50.906;6.952;2022-10-30T09:08:45;21.40;99.90
14755;DHT22;7469;50.906;6.952;2022-10-30T09:11:13;22.10;99.90
14755;DHT22;7469;50.906;6.952;2022-10-30T09:13:43;22.60;99.90
14755;DHT22;7469;50.906;6.952;2022-10-30T09:16:10;23.10;99.90
14755;DHT22;7469;50.906;6.952;2022-10-30T09:18:39;23.70;99.90
14755;DHT22;7469;50.906;6.952;2022-10-30T09:21:09;24.10;99.90
14755;DHT22;7469;50.906;6.952;2022-10-30T09:23:37;24.30;99.90
14755;DHT22;7469;50.906;6.952;2022-10-30T09:26:05;24.90;99.90
14755;DHT22;7469;50.906;6.952;2022-10-30T09:28:33;25.50;99.90
14755;DHT22;7469;50.906;6.952;2022-10-30T09:31:01;25.90;99.90
14755;DHT22;7469;50.906;6.952;2022-10-30T09:33:29;26.30;99.90
14755;DHT22;7469;50.906;6.952;2022-10-30T09:35:57;26.80;99.90
14755;DHT22;7469;50.906;6.952;2022-10-30T09:38:26;27.00;99.90
14755;DHT22;7469;50.906;6.952;2022-10-30T09:41:14;27.70;99.70
14755;DHT22;7469;50.906;6.952;2022-10-30T09:43:56;28.40;97.70
14755;DHT22;7469;50.906;6.952;2022-10-30T09:46:40;29.10;95.60
14755;DHT22;7469;50.906;6.952;2022-10-30T09:49:22;29.40;93.10
14755;DHT22;7469;50.906;6.952;2022-10-30T09:52:16;29.70;91.20
14755;DHT22;7469;50.906;6.952;2022-10-30T09:54:55;30.20;88.60
14755;DHT22;7469;50.906;6.952;2022-10-30T09:57:33;30.50;84.50
14755;DHT22;7469;50.906;6.952;2022-10-30T10:00:09;30.60;81.60
14755;DHT22;7469;50.906;6.952;2022-10-30T10:02:50;31.00;79.10
14755;DHT22;7469;50.906;6.952;2022-10-30T10:05:22;31.40;76.20
14755;DHT22;7469;50.906;6.952;2022-10-30T10:07:55;31.90;72.40
14755;DHT22;7469;50.906;6.952;2022-10-30T10:10:35;32.50;69.60
14755;DHT22;7469;50.906;6.952;2022-10-30T10:13:09;32.90;65.60
14755;DHT22;7469;50.906;6.952;2022-10-30T10:15:42;33.10;61.40
14755;DHT22;7469;50.906;6.952;2022-10-30T10:18:16;32.90;59.40
14755;DHT22;7469;50.906;6.952;2022-10-30T10:20:48;32.80;58.30
14755;DHT22;7469;50.906;6.952;2022-10-30T10:23:19;32.70;57.50
14755;DHT22;7469;50.906;6.952;2022-10-30T10:25:56;32.40;56.50
14755;DHT22;7469;50.906;6.952;2022-10-30T10:28:48;32.20;56.20
14755;DHT22;7469;50.906;6.952;2022-10-30T10:31:27;32.10;55.90
14755;DHT22;7469;50.906;6.952;2022-10-30T10:34:05;32.10;55.40
14755;DHT22;7469;50.906;6.952;2022-10-30T10:36:42;32.20;54.70
14755;DHT22;7469;50.906;6.952;2022-10-30T10:39:22;32.30;54.60
14755;DHT22;7469;50.906;6.952;2022-10-30T10:42:01;32.50;54.20
14755;DHT22;7469;50.906;6.952;2022-10-30T10:44:37;32.60;52.90
14755;DHT22;7469;50.906;6.952;2022-10-30T10:47:24;32.30;51.80
14755;DHT22;7469;50.906;6.952;2022-10-30T10:50:05;32.10;51.50
14755;DHT22;7469;50.906;6.952;2022-10-30T10:52:41;31.60;50.90
14755;DHT22;7469;50.906;6.952;2022-10-30T10:55:15;31.10;51.30
14755;DHT22;7469;50.906;6.952;2022-10-30T10:57:46;31.00;51.80
14755;DHT22;7469;50.906;6.952;2022-10-30T11:00:16;31.00;51.60
14755;DHT22;7469;50.906;6.952;2022-10-30T11:02:50;30.90;51.40
14755;DHT22;7469;50.906;6.952;2022-10-30T11:05:25;31.10;51.50
14755;DHT22;7469;50.906;6.952;2022-10-30T11:07:58;31.20;51.10
14755;DHT22;7469;50.906;6.952;2022-10-30T11:10:28;31.50;51.20
14755;DHT22;7469;50.906;6.952;2022-10-30T11:12:59;31.90;50.40
14755;DHT22;7469;50.906;6.952;2022-10-30T11:15:35;31.80;50.50
14755;DHT22;7469;50.906;6.952;2022-10-30T11:18:06;31.90;49.50
14755;DHT22;7469;50.906;6.952;2022-10-30T11:20:43;31.70;49.10
14755;DHT22;7469;50.906;6.952;2022-10-30T11:23:33;31.80;49.70
14755;DHT22;7469;50.906;6.952;2022-10-30T11:28:50;31.60;49.30
14755;DHT22;7469;50.906;6.952;2022-10-30T11:31:21;31.30;49.50
14755;DHT22;7469;50.906;6.952;2022-10-30T11:33:50;31.10;49.50
14755;DHT22;7469;50.906;6.952;2022-10-30T11:36:22;31.00;50.10
14755;DHT22;7469;50.906;6.952;2022-10-30T11:38:52;30.90;50.30
14755;DHT22;7469;50.906;6.952;2022-10-30T11:41:25;30.60;50.00
14755;DHT22;7469;50.906;6.952;2022-10-30T11:43:54;30.00;50.30
14755;DHT22;7469;50.906;6.952;2022-10-30T11:46:22;29.50;50.90
14755;DHT22;7469;50.906;6.952;2022-10-30T11:48:50;28.90;51.50
14755;DHT22;7469;50.906;6.952;2022-10-30T11:51:35;28.30;52.50
14755;DHT22;7469;50.906;6.952;2022-10-30T11:54:04;27.70;53.50
14755;DHT22;7469;50.906;6.952;2022-10-30T11:56:34;27.30;54.50
14755;DHT22;7469;50.906;6.952;2022-10-30T11:59:03;26.90;55.40
14755;DHT22;7469;50.906;6.952;2022-10-30T12:01:34;26.50;56.30
14755;DHT22;7469;50.906;6.952;2022-10-30T12:04:15;26.20;57.10
14755;DHT22;7469;50.906;6.952;2022-10-30T12:06:54;25.80;58.00
14755;DHT22;7469;50.906;6.952;2022-10-30T12:09:41;25.60;58.80
14755;DHT22;7469;50.906;6.952;2022-10-30T12:12:10;25.40;59.50
14755;DHT22;7469;50.906;6.952;2022-10-30T12:14:40;25.20;60.00
14755;DHT22;7469;50.906;6.952;2022-10-30T12:17:13;25.00;60.70
14755;DHT22;7469;50.906;6.952;2022-10-30T12:19:46;24.90;61.40
14755;DHT22;7469;50.906;6.952;2022-10-30T12:22:28;24.70;61.80
14755;DHT22;7469;50.906;6.952;2022-10-30T12:24:59;24.60;62.50
14755;DHT22;7469;50.906;6.952;2022-10-30T12:27:29;24.50;63.30
14755;DHT22;7469;50.906;6.952;2022-10-30T12:30:06;24.40;64.00
14755;DHT22;7469;50.906;6.952;2022-10-30T12:32:49;24.40;64.70
14755;DHT22;7469;50.906;6.952;2022-10-30T12:35:36;24.40;65.00
14755;DHT22;7469;50.906;6.952;2022-10-30T12:38:12;24.40;65.40
14755;DHT22;7469;50.906;6.952;2022-10-30T12:40:47;24.30;65.50
14755;DHT22;7469;50.906;6.952;2022-10-30T12:43:20;24.30;66.10
14755;DHT22;7469;50.906;6.952;2022-10-30T12:45:53;24.20;66.30
14755;DHT22;7469;50.906;6.952;2022-10-30T12:48:25;24.20;66.60
14755;DHT22;7469;50.906;6.952;2022-10-30T12:51:08;24.20;67.10
14755;DHT22;7469;50.906;6.952;2022-10-30T12:53:41;24.20;67.50
14755;DHT22;7469;50.906;6.952;2022-10-30T12:56:13;24.40;67.90
14755;DHT22;7469;50.906;6.952;2022-10-30T12:58:45;24.40;67.90
14755;DHT22;7469;50.906;6.952;2022-10-30T13:01:21;24.50;68.10
14755;DHT22;7469;50.906;6.952;2022-10-30T13:03:55;24.60;68.10
14755;DHT22;7469;50.906;6.952;2022-10-30T13:06:27;24.60;68.00
14755;DHT22;7469;50.906;6.952;2022-10-30T13:09:03;24.50;67.60
14755;DHT22;7469;50.906;6.952;2022-10-30T13:11:40;24.40;67.30
14755;DHT22;7469;50.906;6.952;2022-10-30T13:14:15;24.30;67.50
14755;DHT22;7469;50.906;6.952;2022-10-30T13:16:45;24.20;67.70
14755;DHT22;7469;50.906;6.952;2022-10-30T13:19:13;24.20;68.00
14755;DHT22;7469;50.906;6.952;2022-10-30T13:21:46;24.20;68.10
14755;DHT22;7469;50.906;6.952;2022-10-30T13:24:22;24.10;67.80
14755;DHT22;7469;50.906;6.952;2022-10-30T13:26:54;24.00;68.20
14755;DHT22;7469;50.906;6.952;2022-10-30T13:29:28;24.00;68.40
14755;DHT22;7469;50.906;6.952;2022-10-30T13:32:10;23.90;68.10
14755;DHT22;7469;50.906;6.952;2022-10-30T13:34:45;23.80;68.60
14755;DHT22;7469;50.906;6.952;2022-10-30T13:37:20;23.80;69.30
14755;DHT22;7469;50.906;6.952;2022-10-30T13:40:00;23.90;70.70
14755;DHT22;7469;50.906;6.952;2022-10-30T13:42:45;23.90;70.50
14755;DHT22;7469;50.906;6.952;2022-10-30T13:48:37;23.80;70.30
14755;DHT22;7469;50.906;6.952;2022-10-30T13:51:25;23.70;70.80
14755;DHT22;7469;50.906;6.952;2022-10-30T13:54:03;23.70;71.20
14755;DHT22;7469;50.906;6.952;2022-10-30T13:56:32;23.70;71.80
14755;DHT22;7469;50.906;6.952;2022-10-30T13:59:06;23.60;72.40
14755;DHT22;7469;50.906;6.952;2022-10-30T14:01:41;23.50;72.80
14755;DHT22;7469;50.906;6.952;2022-10-30T14:04:18;23.40;73.50
14755;DHT22;7469;50.906;6.952;2022-10-30T14:06:52;23.40;74.20
14755;DHT22;7469;50.906;6.952;2022-10-30T14:09:29;23.20;74.50
14755;DHT22;7469;50.906;6.952;2022-10-30T14:15:04;23.00;75.80
14755;DHT22;7469;50.906;6.952;2022-10-30T14:17:32;22.90;76.80
14755;DHT22;7469;50.906;6.952;2022-10-30T14:20:26;22.80;77.50
14755;DHT22;7469;50.906;6.952;2022-10-30T14:23:11;22.70;78.30
14755;DHT22;7469;50.906;6.952;2022-10-30T14:25:40;22.60;79.10
14755;DHT22;7469;50.906;6.952;2022-10-30T14:28:17;22.60;80.00
14755;DHT22;7469;50.906;6.952;2022-10-30T14:31:00;22.50;80.60
14755;DHT22;7469;50.906;6.952;2022-10-30T14:33:34;22.40;82.10
14755;DHT22;7469;50.906;6.952;2022-10-30T14:36:20;22.40;82.20
14755;DHT22;7469;50.906;6.952;2022-10-30T14:38:53;22.30;83.00
14755;DHT22;7469;50.906;6.952;2022-10-30T14:41:28;22.20;83.90
14755;DHT22;7469;50.906;6.952;2022-10-30T14:47:13;22.10;85.60
14755;DHT22;7469;50.906;6.952;2022-10-30T14:49:52;22.00;86.50
14755;DHT22;7469;50.906;6.952;2022-10-30T14:52:30;21.90;87.40
14755;DHT22;7469;50.906;6.952;2022-10-30T14:55:17;21.80;88.30
14755;DHT22;7469;50.906;6.952;2022-10-30T14:57:51;21.80;89.00
14755;DHT22;7469;50.906;6.952;2022-10-30T15:00:38;21.70;89.80
14755;DHT22;7469;50.906;6.952;2022-10-30T15:03:26;21.70;90.20
14755;DHT22;7469;50.906;6.952;2022-10-30T15:06:05;21.60;90.50
14755;DHT22;7469;50.906;6.952;2022-10-30T15:08:55;21.60;90.80
14755;DHT22;7469;50.906;6.952;2022-10-30T15:11:44;21.60;91.00
14755;DHT22;7469;50.906;6.952;2022-10-30T15:14:22;21.60;91.30
14755;DHT22;7469;50.906;6.952;2022-10-30T15:17:14;21.50;91.60
14755;DHT22;7469;50.906;6.952;2022-10-30T15:19:42;21.50;91.90
14755;DHT22;7469;50.906;6.952;2022-10-30T15:22:16;21.50;92.20
14755;DHT22;7469;50.906;6.952;2022-10-30T15:24:47;21.40;92.40
14755;DHT22;7469;50.906;6.952;2022-10-30T15:27:17;21.40;92.60
14755;DHT22;7469;50.906;6.952;2022-10-30T15:29:49;21.40;92.60
14755;DHT22;7469;50.906;6.952;2022-10-30T15:32:19;21.40;92.90
14755;DHT22;7469;50.906;6.952;2022-10-30T15:34:55;21.40;92.60
14755;DHT22;7469;50.906;6.952;2022-10-30T15:37:26;21.40;92.50
14755;DHT22;7469;50.906;6.952;2022-10-30T15:40:15;21.30;92.40
14755;DHT22;7469;50.906;6.952;2022-10-30T15:42:45;21.30;92.40
14755;DHT22;7469;50.906;6.952;2022-10-30T15:45:17;21.20;92.50
14755;DHT22;7469;50.906;6.952;2022-10-30T15:47:48;21.20;92.40
14755;DHT22;7469;50.906;6.952;2022-10-30T15:50:18;21.10;92.40
14755;DHT22;7469;50.906;6.952;2022-10-30T15:52:47;21.10;92.40
14755;DHT22;7469;50.906;6.952;2022-10-30T15:55:21;21.00;92.30
14755;DHT22;7469;50.906;6.952;2022-10-30T15:57:51;20.90;92.10
14755;DHT22;7469;50.906;6.952;2022-10-30T16:00:38;20.90;92.20
14755;DHT22;7469;50.906;6.952;2022-10-30T16:03:15;20.80;92.00
14755;DHT22;7469;50.906;6.952;2022-10-30T16:05:44;20.80;92.50
14755;DHT22;7469;50.906;6.952;2022-10-30T16:08:15;20.70;92.20
14755;DHT22;7469;50.906;6.952;2022-10-30T16:10:48;20.60;92.10
14755;DHT22;7469;50.906;6.952;2022-10-30T16:13:17;20.50;92.20
14755;DHT22;7469;50.906;6.952;2022-10-30T16:15:46;20.50;92.30
14755;DHT22;7469;50.906;6.952;2022-10-30T16:18:18;20.40;92.40
14755;DHT22;7469;50.906;6.952;2022-10-30T16:20:48;20.30;92.60
14755;DHT22;7469;50.906;6.952;2022-10-30T16:23:18;20.20;92.70
14755;DHT22;7469;50.906;6.952;2022-10-30T16:25:53;20.20;92.80
14755;DHT22;7469;50.906;6.952;2022-10-30T16:28:27;20.10;93.00
14755;DHT22;7469;50.906;6.952;2022-10-30T16:30:57;20.00;93.10